< < Back
Terminal Aerodrome Forecast


Current Version              Previous Versions:   1  2  3  4  5  6  7  8  9  

Terminal Aerodrome Forecast

371
FTUS44 KMRX 221630 AAB
TAFCHA
TAF AMD
KCHA 221630Z 2217/2312 01014G20KT P6SM FEW060
     FM230000 02005KT P6SM SKC=

Latest METAR

631
SAUS80 KWBC 222200
MTRCHA
METAR KCHA 222153Z 03014KT 10SM CLR 24/07 A3010 RMK AO2 SLP187
T02390067


USA.gov is the U.S. government's official web portal to all federal, state and local government web resources and services.